Nearby METAR Reports

 

KMLP - Mullan Pass, Idaho, USA
Distance from station: NE 41mi, 66km
Updated: Wed, 14-Apr-2021 3:53pm PDT
Clear
Clear
 Wind from varies
Wind: varies 5 mph , 7 km/h
Temperature: 43°F , 6°C
Wind Chill: 40°F , 4°C
Dew Point: 23°F , -5°C
Humidity: 46%
Barometer: 30.09 inHg , 1019 hPa
Clouds: Clear
Visibility: 10 miles , 16 km
2021/04/14 22:53 KMLP 142253Z AUTO VRB04KT 10SM CLR 06/M05 A3009 RMK AO2 SLP163 T00611050
KPUW - Pullman/Moscow, Washington, USA
Distance from station: SW 42mi, 68km
Updated: Wed, 14-Apr-2021 3:53pm PDT
Clear
Clear
 Wind from E
Wind: E 25 mph , 41 km/h
Temperature: 63°F , 17°C
Dew Point: 23°F , -5°C
Humidity: 22%
Barometer: 30.01 inHg , 1016.3 hPa
Clouds: Clear
Visibility: 10 miles , 16 km
2021/04/14 22:53 KPUW 142253Z AUTO 10022KT 10SM CLR 17/M05 A3001 RMK AO2 PK WND 08030/2205 SLP165 T01721050
 
KCOE - Coeur D'alene, Idaho, USA
Distance from station: NNW 49mi, 79km
Updated: Wed, 14-Apr-2021 3:56pm PDT
Partly Cloudy
Partly Cloudy
 Wind from NNE
Wind: NNE 22 mph , 35 km/h, Gust: 28 mph , 44 km/h
Temperature: 63°F , 17°C
Dew Point: 27°F , -3°C
Humidity: 25%
Barometer: 30.06 inHg , 1017.9 hPa
Clouds: Partly Cloudy
Visibility: 10 miles , 16 km
Cloud details: Partly Cloudy 9000 ft
2021/04/14 22:56 KCOE 142256Z AUTO 02019G24KT 10SM SCT090 17/M03 A3006 RMK AO2 PK WND 02026/2245 SLP202 T01671033
KSFF - Spokane/Felts, Washington, USA
Distance from station: NW 59mi, 94km
Updated: Wed, 14-Apr-2021 3:53pm PDT
Clear
Clear
 
Temperature: 66°F , 19°C
Dew Point: 27°F , -3°C
Humidity: 22%
Barometer: 30.06 inHg , 1017.9 hPa
Clouds: Clear
Visibility: 10 miles , 16 km
2021/04/14 22:53 KSFF 142253Z 10SM CLR 19/M03 A3006 RMK AO2 SLP179 T01891033
 
KLWS - Lewiston, Idaho, USA
Distance from station: SSW 59mi, 96km
Updated: Wed, 14-Apr-2021 3:56pm PDT
Clear
Clear
 Wind from ENE
Wind: ENE 16 mph , 26 km/h, Gust: 26 mph , 43 km/h
Temperature: 66°F , 19°C
Dew Point: 23°F , -5°C
Humidity: 19%
Barometer: 29.97 inHg , 1014.9 hPa
Clouds: Clear
Visibility: 10 miles , 16 km
2021/04/14 22:56 KLWS 142256Z 07014G23KT 10SM CLR 19/M05 A2997 RMK AO2 SLP152 T01891050
KGEG - Spokane/Metro, Washington, USA
Distance from station: WNW 64mi, 103km
Updated: Wed, 14-Apr-2021 3:53pm PDT
Few Clouds
Few Clouds
 Wind from ENE
Wind: ENE 18 mph , 30 km/h, Gust: 31 mph , 50 km/h
Temperature: 64°F , 18°C
Dew Point: 23°F , -5°C
Humidity: 21%
Barometer: 30.05 inHg , 1017.6 hPa
Clouds: Few Clouds
Visibility: 10 miles , 16 km
Cloud details: Few Clouds 6500 ft
2021/04/14 22:53 KGEG 142253Z 07016G27KT 10SM FEW065 18/M05 A3005 RMK AO2 PK WND 05030/2226 SLP178 T01781050
 
KSKA - Fairchild Afb, Washington, USA
Distance from station: WNW 68mi, 110km
Updated: Wed, 14-Apr-2021 3:58pm PDT
Clear
Clear
 Wind from NE
Wind: NE 28 mph , 44 km/h, Gust: 35 mph , 56 km/h
Temperature: 64°F , 18°C
Dew Point: 25°F , -4°C
Humidity: 22%
Barometer: 30.05 inHg , 1017.6 hPa
Clouds: Clear
Visibility: 10 miles , 16 km
2021/04/14 22:58 KSKA 142258Z 05024G30KT 10SM CLR 18/M04 A3005 RMK AO2A PK WND 06030/45 SLP182 T01751045 $